createdAt,value
2023-02-03T00:04:11.362Z,8.00
2023-02-03T00:09:16.045Z,5.97
2023-02-03T00:14:17.982Z,7.17
2023-02-03T00:19:20.068Z,9.17
2023-02-03T00:24:24.136Z,6.80
2023-02-03T00:29:26.211Z,8.00
2023-02-03T00:34:30.723Z,8.63
2023-02-03T00:39:33.857Z,6.53
2023-02-03T00:44:36.002Z,6.87
2023-02-03T00:49:37.892Z,6.80
2023-02-03T00:54:41.179Z,5.00
2023-02-03T00:59:43.281Z,4.83
2023-02-03T01:04:45.299Z,5.17
2023-02-03T01:09:48.899Z,5.83
2023-02-03T01:14:51.190Z,4.53
2023-02-03T01:19:53.729Z,3.00
2023-02-03T01:24:57.324Z,3.10
2023-02-03T01:29:59.379Z,4.40
2023-02-03T01:35:01.232Z,3.77
2023-02-03T01:40:05.110Z,3.50
2023-02-03T01:45:07.902Z,2.53
2023-02-03T01:50:15.438Z,2.40
2023-02-03T01:55:24.228Z,4.07
2023-02-03T02:00:27.206Z,4.70
2023-02-03T02:05:33.891Z,5.80
2023-02-03T02:10:37.638Z,6.60
2023-02-03T02:15:48.168Z,5.27
2023-02-03T02:21:23.321Z,7.30
2023-02-03T02:27:16.032Z,5.40
2023-02-03T02:32:31.429Z,4.37
2023-02-03T02:37:44.711Z,4.70
2023-02-03T02:42:59.109Z,3.47
2023-02-03T02:48:07.763Z,4.30
2023-02-03T02:53:11.496Z,7.63
2023-02-03T02:58:16.421Z,4.67
2023-02-03T03:03:21.827Z,5.57
2023-02-03T03:08:29.154Z,5.17
2023-02-03T03:13:34.663Z,4.73
2023-02-03T03:18:43.777Z,3.20
2023-02-03T03:23:49.997Z,4.00
2023-02-03T03:28:56.311Z,5.67
2023-02-03T03:34:00.381Z,3.43
2023-02-03T03:39:08.174Z,4.67
2023-02-03T03:44:15.038Z,4.20
2023-02-03T03:49:21.413Z,3.87
2023-02-03T03:54:26.465Z,5.43
2023-02-03T03:59:33.294Z,2.93
2023-02-03T04:04:39.036Z,5.23
2023-02-03T04:09:43.086Z,3.73
2023-02-03T04:14:45.342Z,1.30
2023-02-03T04:19:49.178Z,1.70
2023-02-03T04:24:51.597Z,2.33
2023-02-03T04:29:53.712Z,1.83
2023-02-03T04:34:57.345Z,2.67
2023-02-03T04:39:59.927Z,3.73
2023-02-03T04:45:02.005Z,2.30
2023-02-03T04:50:05.572Z,3.27
2023-02-03T04:55:08.351Z,2.10
2023-02-03T05:00:11.710Z,4.73
2023-02-03T05:05:15.287Z,3.97
2023-02-03T05:10:17.584Z,5.33
2023-02-03T05:15:19.561Z,6.03
2023-02-03T05:20:23.520Z,4.43
2023-02-03T05:25:25.544Z,5.83
2023-02-03T05:30:27.779Z,4.07
2023-02-03T05:35:31.394Z,4.77
2023-02-03T05:40:50.840Z,5.43
2023-02-03T05:45:53.411Z,4.43
2023-02-03T05:50:56.863Z,4.40
2023-02-03T05:55:58.962Z,3.47
2023-02-03T06:01:00.904Z,6.30
2023-02-03T06:06:04.214Z,7.97
2023-02-03T06:11:06.573Z,6.30
2023-02-03T06:16:09.245Z,4.93
2023-02-03T06:21:13.627Z,2.50
2023-02-03T06:26:15.951Z,3.47
2023-02-03T06:31:17.945Z,4.53
2023-02-03T06:36:22.541Z,4.53
2023-02-03T06:41:28.832Z,5.80
2023-02-03T06:46:31.149Z,3.80
2023-02-03T06:51:34.906Z,4.80
2023-02-03T06:56:37.223Z,4.20
2023-02-03T07:01:39.528Z,2.63
2023-02-03T07:06:43.407Z,2.10
2023-02-03T07:11:45.642Z,1.67
2023-02-03T07:16:50.948Z,3.03
2023-02-03T07:21:54.629Z,2.27
2023-02-03T07:26:57.098Z,6.77
2023-02-03T07:31:58.978Z,2.77
2023-02-03T07:37:02.652Z,3.00
2023-02-03T07:42:05.006Z,4.53
2023-02-03T07:47:07.283Z,3.73
2023-02-03T07:52:10.435Z,1.97
2023-02-03T07:57:12.652Z,3.27
2023-02-03T08:02:15.003Z,2.37
2023-02-03T08:07:18.311Z,4.10
2023-02-03T08:12:20.411Z,3.83
2023-02-03T08:17:22.267Z,4.47
2023-02-03T08:22:26.324Z,7.60
2023-02-03T08:27:29.032Z,6.33
2023-02-03T08:32:31.323Z,5.43
2023-02-03T08:37:34.611Z,5.80
2023-02-03T08:42:36.911Z,3.83
2023-02-03T08:47:39.537Z,4.30
2023-02-03T08:52:45.897Z,3.03
2023-02-03T08:57:48.018Z,4.93
2023-02-03T09:02:50.824Z,3.30
2023-02-03T09:07:54.607Z,4.83
2023-02-03T09:12:57.619Z,2.13
2023-02-03T09:17:59.697Z,2.90
2023-02-03T09:23:03.488Z,3.40
2023-02-03T09:28:05.927Z,9.20
2023-02-03T09:33:08.017Z,3.93
2023-02-03T09:38:11.840Z,3.97
2023-02-03T09:43:30.472Z,2.97
2023-02-03T09:48:39.350Z,6.83
2023-02-03T09:53:49.805Z,8.37
2023-02-03T09:58:52.137Z,2.67
2023-02-03T10:04:00.546Z,3.17
2023-02-03T10:09:40.007Z,1.70
2023-02-03T10:14:54.910Z,1.93
2023-02-03T10:20:02.703Z,5.07
2023-02-03T10:25:16.689Z,7.50
2023-02-03T10:30:22.120Z,5.70
2023-02-03T10:35:30.160Z,1.10
2023-02-03T10:40:33.637Z,2.20
2023-02-03T10:45:39.610Z,5.57
2023-02-03T10:50:48.173Z,3.60
2023-02-03T10:55:53.997Z,6.10
2023-02-03T11:01:06.966Z,1.87
2023-02-03T11:06:12.362Z,4.53
2023-02-03T11:11:24.496Z,2.57
2023-02-03T11:16:27.196Z,3.40
2023-02-03T11:21:33.217Z,2.33
2023-02-03T11:26:42.741Z,3.10
2023-02-03T11:31:50.010Z,3.33
2023-02-03T11:36:52.466Z,2.00
2023-02-03T11:41:56.625Z,2.53
2023-02-03T11:47:02.799Z,3.83
2023-02-03T11:52:18.314Z,3.43
2023-02-03T11:57:34.899Z,2.20
2023-02-03T12:03:06.649Z,1.93
2023-02-03T12:08:29.373Z,4.47
2023-02-03T12:13:50.822Z,3.70
2023-02-03T12:19:00.764Z,4.13
2023-02-03T12:24:09.632Z,4.20
2023-02-03T12:29:17.471Z,5.83
2023-02-03T12:34:24.330Z,6.73
2023-02-03T12:39:32.096Z,4.57
2023-02-03T12:44:41.966Z,7.77
2023-02-03T12:49:48.768Z,3.97
2023-02-03T12:54:58.599Z,3.07
2023-02-03T13:00:19.648Z,2.63
2023-02-03T13:05:27.728Z,4.00
2023-02-03T13:10:36.668Z,3.33
2023-02-03T13:15:45.148Z,5.10
2023-02-03T13:20:47.659Z,2.13
2023-02-03T13:26:08.924Z,2.40
2023-02-03T13:31:31.288Z,2.17
2023-02-03T13:36:58.344Z,2.73
2023-02-03T13:42:26.363Z,4.03
2023-02-03T13:47:31.754Z,3.30
2023-02-03T13:52:37.420Z,2.23
2023-02-03T13:57:40.535Z,2.27
2023-02-03T14:02:49.366Z,6.80
2023-02-03T14:07:51.649Z,2.37
2023-02-03T14:13:00.039Z,5.57
2023-02-03T14:18:34.335Z,1.97
2023-02-03T14:23:44.498Z,4.23
2023-02-03T14:28:49.059Z,1.17
2023-02-03T14:34:13.381Z,2.10
2023-02-03T14:39:48.997Z,3.07
2023-02-03T14:45:04.644Z,2.03
2023-02-03T14:50:21.516Z,1.60
2023-02-03T14:55:39.120Z,9.77
2023-02-03T15:00:41.226Z,3.97
2023-02-03T15:05:47.244Z,2.60
2023-02-03T15:10:49.209Z,3.40
2023-02-03T15:15:54.229Z,10.77
2023-02-03T15:20:58.108Z,4.67
2023-02-03T15:26:02.599Z,8.10
2023-02-03T15:31:08.532Z,8.00
2023-02-03T15:36:18.347Z,13.20
2023-02-03T15:41:25.097Z,9.93
2023-02-03T15:46:33.856Z,3.00
2023-02-03T15:51:40.024Z,5.27
2023-02-03T15:56:45.741Z,9.33
2023-02-03T16:01:48.310Z,6.57
2023-02-03T16:06:54.215Z,9.90
2023-02-03T16:12:16.845Z,5.73
2023-02-03T16:17:28.961Z,7.07
2023-02-03T16:22:38.749Z,3.60
2023-02-03T16:27:41.555Z,6.10
2023-02-03T16:33:01.210Z,6.97
2023-02-03T16:38:27.073Z,7.43
2023-02-03T16:43:46.720Z,6.60
2023-02-03T16:49:06.537Z,7.83
2023-02-03T16:54:14.364Z,9.83
2023-02-03T16:59:16.862Z,9.77
2023-02-03T17:04:19.378Z,13.97
2023-02-03T17:09:25.481Z,7.83
2023-02-03T17:14:28.331Z,10.73
2023-02-03T17:19:31.124Z,15.67
2023-02-03T17:24:35.412Z,11.97
2023-02-03T17:29:38.215Z,8.87
2023-02-03T17:34:41.385Z,13.27
2023-02-03T18:00:50.835Z,10.83
2023-02-03T18:05:54.582Z,15.03
2023-02-03T18:11:01.184Z,14.80
2023-02-03T18:16:04.008Z,8.97
2023-02-03T18:21:07.741Z,5.77
2023-02-03T18:26:15.113Z,8.30
2023-02-03T18:31:19.647Z,4.60
2023-02-03T18:36:24.061Z,6.00
2023-02-03T18:41:30.999Z,7.77
2023-02-03T18:46:35.478Z,13.70
2023-02-03T18:51:41.163Z,10.67
2023-02-03T18:56:49.022Z,15.30
2023-02-03T19:01:55.376Z,11.80
2023-02-03T19:06:58.689Z,14.80
2023-02-03T19:12:04.952Z,13.13
2023-02-03T19:17:11.326Z,8.90
2023-02-03T19:22:21.834Z,15.70
2023-02-03T19:27:29.409Z,8.57
2023-02-03T19:32:39.023Z,10.57
2023-02-03T19:37:43.456Z,11.60
2023-02-03T19:42:50.603Z,16.03
2023-02-03T19:47:54.545Z,13.90
2023-02-03T19:53:00.057Z,9.37
2023-02-03T19:58:06.612Z,10.23
2023-02-03T20:03:11.387Z,11.47
2023-02-03T20:08:16.459Z,13.43
2023-02-03T20:13:22.295Z,11.27
2023-02-03T20:18:26.160Z,11.30
2023-02-03T20:23:31.557Z,11.10
2023-02-03T20:28:36.757Z,13.33
2023-02-03T20:33:41.266Z,13.20
2023-02-03T20:38:46.069Z,13.47
2023-02-03T20:43:51.659Z,12.03
2023-02-03T20:48:56.162Z,17.40
2023-02-03T20:54:00.489Z,12.27
2023-02-03T20:59:05.096Z,9.87
2023-02-03T21:04:31.515Z,12.07
2023-02-03T21:09:37.088Z,9.60
2023-02-03T21:14:44.835Z,6.63
2023-02-03T21:19:50.581Z,9.33
2023-02-03T21:24:57.771Z,5.63
2023-02-03T21:30:03.907Z,5.53
2023-02-03T21:35:26.175Z,4.47
2023-02-03T21:40:31.931Z,5.43
2023-02-03T21:45:43.301Z,4.30
2023-02-03T21:50:47.759Z,3.23
2023-02-03T21:55:53.913Z,5.97
2023-02-03T22:00:59.531Z,6.67
2023-02-03T22:06:17.929Z,5.57
2023-02-03T22:11:22.392Z,4.83
2023-02-03T22:16:26.966Z,3.10
2023-02-03T22:21:29.227Z,5.00
2023-02-03T22:27:06.600Z,5.03
2023-02-03T22:32:43.343Z,5.30
2023-02-03T22:37:45.770Z,3.87
2023-02-03T22:42:48.579Z,4.90
2023-02-03T22:47:52.082Z,6.10
2023-02-03T22:52:54.438Z,2.77
2023-02-03T22:57:56.947Z,4.93
2023-02-03T23:03:00.853Z,4.70
2023-02-03T23:08:03.799Z,5.73
2023-02-03T23:13:06.761Z,3.80
2023-02-03T23:18:10.261Z,4.70
2023-02-03T23:23:14.305Z,5.03
2023-02-03T23:28:16.653Z,3.60
2023-02-03T23:33:20.781Z,5.23
2023-02-03T23:38:23.568Z,4.90
2023-02-03T23:43:26.222Z,3.83
2023-02-03T23:48:29.649Z,3.53
2023-02-03T23:53:31.872Z,4.70
2023-02-03T23:58:34.395Z,4.87
